Time;durP1;ratioP1;P1;durP2;ratioP2;P2;SDS_P1;SDS_P2;PMS_P1;PMS_P2;Temp;Humidity;BMP_temperature;BMP_pressure;BME280_temperature;BME280_humidity;BME280_pressure;Samples;Min_cycle;Max_cycle;Signal;HPM_P1;HPM_P2
2022/11/08 00:01:57;;;;;;;2.85;1.42;;;18.60;52.60;;;;;;5116519;28;20050;-10
2022/11/08 00:04:23;;;;;;;1.38;1.27;;;18.60;52.60;;;;;;5115859;28;20093;-10
2022/11/08 00:15:05;;;;;;;1.40;1.13;;;18.60;52.70;;;;;;5115837;28;20100;-10
2022/11/08 00:17:31;;;;;;;1.67;1.05;;;18.60;52.70;;;;;;5115407;28;20051;-10
2022/11/08 00:19:57;;;;;;;1.55;1.30;;;18.60;52.70;;;;;;5115957;28;20047;-10
2022/11/08 00:22:23;;;;;;;1.30;1.13;;;18.60;52.70;;;;;;5115618;28;20059;-10
2022/11/08 00:24:50;;;;;;;1.50;1.20;;;18.60;52.70;;;;;;5115580;28;20040;-10
2022/11/08 00:27:21;;;;;;;1.70;1.08;;;18.60;52.70;;;;;;5115659;28;20101;-10
2022/11/08 00:29:47;;;;;;;2.60;1.60;;;18.60;52.70;;;;;;5097397;28;20051;-10
2022/11/08 00:32:18;;;;;;;1.40;1.10;;;18.60;52.60;;;;;;5115451;28;20051;-10
2022/11/08 00:34:44;;;;;;;2.03;1.30;;;18.60;52.70;;;;;;5115381;28;20056;-10
2022/11/08 00:37:10;;;;;;;1.38;1.20;;;18.60;52.70;;;;;;5115688;28;20380;-11
2022/11/08 00:39:36;;;;;;;1.10;0.95;;;18.60;52.70;;;;;;5115373;28;20112;-10
2022/11/08 00:42:02;;;;;;;1.15;1.05;;;18.60;53.20;;;;;;5114948;28;20395;-10
2022/11/08 00:44:27;;;;;;;1.75;1.30;;;18.60;52.70;;;;;;5115227;28;20059;-10
2022/11/08 00:46:53;;;;;;;1.52;1.10;;;18.60;52.70;;;;;;5115162;28;20251;-10
2022/11/08 00:49:19;;;;;;;2.05;1.40;;;18.60;52.70;;;;;;5115296;28;20134;-10
2022/11/08 00:51:45;;;;;;;1.52;1.20;;;18.60;52.70;;;;;;5115351;28;20062;-10
2022/11/08 00:54:16;;;;;;;1.83;1.48;;;18.60;52.70;;;;;;5115120;28;20048;-11
2022/11/08 00:56:42;;;;;;;1.92;1.45;;;18.60;52.70;;;;;;5115191;28;20130;-10
2022/11/08 00:59:13;;;;;;;1.48;1.10;;;18.60;52.70;;;;;;5114881;28;20048;-10
2022/11/08 01:01:39;;;;;;;1.48;1.10;;;18.60;52.70;;;;;;5114960;28;20047;-11
2022/11/08 01:04:06;;;;;;;1.10;1.00;;;18.60;52.70;;;;;;5114935;28;20097;-11
2022/11/08 01:06:31;;;;;;;1.65;1.33;;;18.60;52.70;;;;;;5114879;28;20043;-10
2022/11/08 01:08:57;;;;;;;2.20;1.27;;;18.60;52.70;;;;;;5115395;28;20056;-10
2022/11/08 01:11:25;;;;;;;1.17;1.05;;;18.60;52.70;;;;;;5115181;28;20052;-10
2022/11/08 01:13:56;;;;;;;1.45;1.20;;;18.60;52.70;;;;;;5115174;28;20128;-11
2022/11/08 01:16:25;;;;;;;1.42;1.17;;;18.60;52.70;;;;;;5115146;28;20047;-10
2022/11/08 01:18:53;;;;;;;2.45;1.30;;;18.60;52.70;;;;;;5110461;28;20055;-10
2022/11/08 01:21:20;;;;;;;2.47;1.40;;;18.50;52.70;;;;;;5114594;28;20047;-10
2022/11/08 01:23:46;;;;;;;1.23;0.95;;;18.50;52.70;;;;;;5114985;28;20399;-10
2022/11/08 01:26:14;;;;;;;2.05;1.30;;;18.50;52.70;;;;;;5114938;28;20060;-10
2022/11/08 01:28:40;;;;;;;1.45;1.20;;;18.50;52.70;;;;;;5114165;28;20048;-10
2022/11/08 01:31:14;;;;;;;1.33;1.20;;;18.60;52.80;;;;;;5114560;28;20051;-10
2022/11/08 01:33:40;;;;;;;1.67;1.50;;;18.60;52.80;;;;;;5114605;28;20052;-10
2022/11/08 01:36:08;;;;;;;1.38;1.20;;;18.50;52.80;;;;;;5114491;28;20062;-10
2022/11/08 01:38:35;;;;;;;1.65;1.20;;;18.50;52.80;;;;;;5114027;28;20051;-10
2022/11/08 01:41:00;;;;;;;2.58;1.20;;;18.50;52.70;;;;;;5114426;28;20461;-10
2022/11/08 01:43:29;;;;;;;1.10;1.00;;;18.50;52.70;;;;;;5114255;28;20048;-10
2022/11/08 01:46:30;;;;;;;1.60;1.17;;;18.60;52.80;;;;;;5114263;28;20479;-10
2022/11/08 01:48:59;;;;;;;;;;;18.50;52.80;;;;;;5114887;28;20051;-11
2022/11/08 01:51:34;;;;;;;1.10;0.90;;;18.60;52.80;;;;;;5114177;28;19969;-10
2022/11/08 01:54:02;;;;;;;2.03;1.25;;;18.60;52.80;;;;;;5113113;28;20079;-11
2022/11/08 01:56:28;;;;;;;1.75;1.42;;;18.50;52.80;;;;;;5114297;28;20048;-11
2022/11/08 01:58:56;;;;;;;1.65;1.25;;;18.50;52.70;;;;;;5113975;28;20050;-11
2022/11/08 02:01:21;;;;;;;1.77;1.13;;;18.50;53.30;;;;;;5114335;28;20055;-11
2022/11/08 02:03:47;;;;;;;2.05;1.40;;;18.50;52.80;;;;;;5114067;28;20052;-11
2022/11/08 02:06:14;;;;;;;2.17;1.23;;;18.50;52.80;;;;;;5113974;28;20044;-10
2022/11/08 02:08:41;;;;;;;2.22;1.33;;;18.50;52.80;;;;;;5113480;28;20433;-11
2022/11/08 02:11:11;;;;;;;2.13;1.35;;;18.50;52.80;;;;;;5114066;28;20079;-10
2022/11/08 02:13:37;;;;;;;1.20;0.98;;;18.50;52.80;;;;;;5113653;28;20052;-10
2022/11/08 02:16:12;;;;;;;2.22;1.20;;;18.50;52.80;;;;;;5113560;28;20062;-11
2022/11/08 02:18:38;;;;;;;1.25;1.05;;;18.50;52.80;;;;;;5093451;28;20056;-10
2022/11/08 02:21:27;;;;;;;1.90;1.20;;;18.50;52.80;;;;;;5113620;28;20048;-10
2022/11/08 02:24:00;;;;;;;1.85;1.30;;;18.50;52.80;;;;;;5113676;28;20468;-10
2022/11/08 02:26:34;;;;;;;1.23;1.00;;;18.50;52.80;;;;;;5113958;28;20047;-10
2022/11/08 02:29:28;;;;;;;1.20;1.10;;;18.50;52.90;;;;;;5113730;28;20071;-10
2022/11/08 02:31:54;;;;;;;1.17;1.00;;;18.50;52.90;;;;;;5113604;28;20081;-10
2022/11/08 02:34:23;;;;;;;1.48;1.20;;;18.50;52.90;;;;;;5113517;28;20051;-11
2022/11/08 02:36:49;;;;;;;1.70;1.30;;;18.50;52.90;;;;;;5113544;28;20054;-11
2022/11/08 02:39:15;;;;;;;1.42;1.30;;;18.50;52.90;;;;;;5113554;28;20052;-11
2022/11/08 02:41:40;;;;;;;1.55;1.35;;;18.50;52.90;;;;;;5113451;28;20051;-10
2022/11/08 02:44:06;;;;;;;1.95;1.10;;;18.50;52.90;;;;;;5113725;28;20047;-10
2022/11/08 02:46:31;;;;;;;1.25;1.15;;;18.50;52.90;;;;;;5113420;28;20093;-10
2022/11/08 02:48:57;;;;;;;1.27;1.17;;;18.50;52.90;;;;;;5113220;28;20043;-11
2022/11/08 02:51:23;;;;;;;1.15;0.95;;;18.50;52.90;;;;;;5113300;28;20403;-10
2022/11/08 02:53:49;;;;;;;1.83;1.25;;;18.50;52.90;;;;;;5113567;28;20048;-11
2022/11/08 02:56:14;;;;;;;1.38;1.20;;;18.50;52.90;;;;;;5113231;28;20211;-10
2022/11/08 02:58:40;;;;;;;1.20;1.10;;;18.50;52.90;;;;;;5113223;28;20056;-11
2022/11/08 03:01:05;;;;;;;1.40;1.00;;;18.50;52.90;;;;;;5113206;28;20050;-10
2022/11/08 03:03:31;;;;;;;1.25;1.15;;;18.50;52.90;;;;;;5112988;28;20130;-10
2022/11/08 03:05:56;;;;;;;1.45;1.30;;;18.50;52.90;;;;;;5112726;28;20047;-11
2022/11/08 03:08:22;;;;;;;1.40;1.00;;;18.50;52.90;;;;;;5112568;28;20063;-11
2022/11/08 03:10:48;;;;;;;1.38;1.20;;;18.50;52.90;;;;;;5113155;28;20079;-11
2022/11/08 03:13:13;;;;;;;1.13;1.02;;;18.50;52.90;;;;;;5112964;28;20059;-10
2022/11/08 03:15:39;;;;;;;1.92;1.20;;;18.50;53.40;;;;;;5113227;28;20050;-10
2022/11/08 03:18:05;;;;;;;1.20;1.10;;;18.50;52.90;;;;;;5112860;28;20117;-11
2022/11/08 03:20:31;;;;;;;1.10;1.00;;;18.50;52.90;;;;;;5113398;28;20063;-11
2022/11/08 03:23:03;;;;;;;1.55;1.20;;;18.50;52.90;;;;;;5113224;28;20468;-10
2022/11/08 03:25:29;;;;;;;1.55;1.27;;;18.50;52.90;;;;;;5112926;28;20064;-10
2022/11/08 03:27:55;;;;;;;1.58;0.98;;;18.50;52.90;;;;;;5112603;28;20059;-10
2022/11/08 03:30:21;;;;;;;1.20;1.10;;;18.50;52.90;;;;;;5112741;28;20052;-10
2022/11/08 03:32:48;;;;;;;1.05;1.02;;;18.50;53.00;;;;;;5113360;28;20138;-10
2022/11/08 03:35:14;;;;;;;2.45;1.30;;;18.50;52.90;;;;;;5113242;28;20051;-10
2022/11/08 03:37:39;;;;;;;1.55;1.25;;;18.50;52.90;;;;;;5111745;28;20071;-11
2022/11/08 03:40:06;;;;;;;1.58;1.13;;;18.50;52.90;;;;;;5112525;28;20058;-11
2022/11/08 03:42:31;;;;;;;1.05;0.98;;;18.50;53.00;;;;;;5112590;28;20051;-10
2022/11/08 03:44:57;;;;;;;1.63;1.20;;;18.50;52.90;;;;;;5112837;28;20056;-10
2022/11/08 03:47:22;;;;;;;2.17;1.08;;;18.50;52.90;;;;;;5112588;28;20055;-11
2022/11/08 03:49:48;;;;;;;1.38;0.93;;;18.50;53.00;;;;;;5112997;28;20043;-10
2022/11/08 03:52:14;;;;;;;0.90;0.88;;;18.50;53.00;;;;;;5112547;28;20051;-10
2022/11/08 03:54:39;;;;;;;1.50;1.00;;;18.50;53.00;;;;;;5112598;28;20043;-10
2022/11/08 03:57:05;;;;;;;1.38;1.00;;;18.50;53.00;;;;;;5112806;28;20044;-10
2022/11/08 03:59:30;;;;;;;1.17;1.08;;;18.50;53.00;;;;;;5112321;28;20063;-10
2022/11/08 04:01:56;;;;;;;1.00;0.82;;;18.50;52.90;;;;;;5112326;28;20116;-10
2022/11/08 04:04:21;;;;;;;1.30;1.13;;;18.50;52.90;;;;;;5112421;28;20127;-10
2022/11/08 04:06:47;;;;;;;1.65;1.27;;;18.50;52.90;;;;;;5112341;28;20040;-10
2022/11/08 04:09:12;;;;;;;1.10;1.00;;;18.50;52.80;;;;;;5110875;28;20051;-10
2022/11/08 04:17:06;;;;;;;1.10;1.00;;;18.60;52.70;;;;;;5114205;28;20077;-11
2022/11/08 04:22:16;;;;;;;1.27;1.17;;;18.60;52.50;;;;;;5116173;28;20053;-10
2022/11/08 04:24:42;;;;;;;1.40;0.98;;;18.70;52.50;;;;;;5115678;28;20047;-10
2022/11/08 04:27:07;;;;;;;1.13;1.02;;;18.70;52.40;;;;;;5115477;28;20112;-10
2022/11/08 04:29:33;;;;;;;1.15;0.90;;;18.70;52.30;;;;;;5115384;28;20076;-10
2022/11/08 04:31:58;;;;;;;1.67;1.20;;;18.80;52.30;;;;;;5116095;28;20133;-10
2022/11/08 04:34:24;;;;;;;2.17;1.02;;;18.80;52.20;;;;;;5115784;28;20051;-10
2022/11/08 04:36:49;;;;;;;1.23;1.00;;;18.80;52.10;;;;;;5115447;28;20191;-11
2022/11/08 04:39:15;;;;;;;1.10;1.00;;;18.90;51.90;;;;;;5115647;28;20059;-10
2022/11/08 04:41:41;;;;;;;1.45;1.10;;;19.00;51.90;;;;;;5115375;28;20047;-10
2022/11/08 04:44:07;;;;;;;1.77;1.02;;;19.00;51.80;;;;;;5115607;28;20411;-10
2022/11/08 04:46:32;;;;;;;1.20;1.10;;;19.00;51.70;;;;;;5115212;28;20055;-10
2022/11/08 04:48:59;;;;;;;2.92;0.90;;;19.00;51.60;;;;;;5115862;28;20043;-10
2022/11/08 04:51:28;;;;;;;1.30;1.00;;;19.10;51.50;;;;;;5115478;28;20056;-11
2022/11/08 04:53:56;;;;;;;1.42;1.15;;;19.10;51.50;;;;;;5115138;28;20087;-10
2022/11/08 04:56:25;;;;;;;1.85;1.33;;;19.20;51.50;;;;;;5114995;28;20062;-10
2022/11/08 04:58:53;;;;;;;1.40;1.17;;;19.10;51.30;;;;;;5114962;28;20551;-10
2022/11/08 05:01:22;;;;;;;1.30;1.00;;;19.10;51.30;;;;;;5115292;28;20116;-10
2022/11/08 05:03:49;;;;;;;1.55;1.08;;;19.20;51.30;;;;;;5114923;28;20396;-11
2022/11/08 05:06:21;;;;;;;1.33;1.10;;;19.20;51.30;;;;;;5114887;28;20134;-11
2022/11/08 05:08:47;;;;;;;1.52;1.20;;;19.20;51.30;;;;;;5114940;28;20154;-10
2022/11/08 05:11:16;;;;;;;0.70;0.70;;;19.20;51.30;;;;;;5115386;28;20384;-11
2022/11/08 05:13:41;;;;;;;2.10;1.15;;;19.20;51.30;;;;;;5114943;28;20067;-10
2022/11/08 05:16:14;;;;;;;2.05;1.25;;;19.20;51.20;;;;;;5114437;28;20057;-11
2022/11/08 05:18:40;;;;;;;2.80;1.10;;;19.20;51.20;;;;;;5114648;28;20055;-10
2022/11/08 05:24:02;;;;;;;1.70;1.10;;;19.20;51.30;;;;;;5074404;28;20052;-11
2022/11/08 05:26:28;;;;;;;1.45;1.10;;;19.20;51.30;;;;;;5114899;28;20076;-10
2022/11/08 05:28:55;;;;;;;1.20;0.98;;;19.20;51.30;;;;;;5114793;28;20491;-10
2022/11/08 05:31:22;;;;;;;1.23;1.10;;;19.20;51.40;;;;;;5114553;28;20051;-10
2022/11/08 05:33:48;;;;;;;1.10;1.00;;;19.10;51.40;;;;;;5114556;28;20051;-10
2022/11/08 05:36:15;;;;;;;2.42;1.15;;;19.20;51.50;;;;;;5114770;28;20410;-10
2022/11/08 05:38:41;;;;;;;1.48;0.82;;;19.10;51.50;;;;;;5114585;28;20377;-11
2022/11/08 05:41:18;;;;;;;1.13;1.00;;;19.10;51.50;;;;;;5114742;28;20506;-10
2022/11/08 05:43:46;;;;;;;1.50;1.20;;;19.10;51.60;;;;;;5114568;28;20087;-10
2022/11/08 05:46:12;;;;;;;1.65;1.02;;;19.10;51.60;;;;;;5114322;28;20062;-10
2022/11/08 05:48:38;;;;;;;1.35;1.15;;;19.10;51.70;;;;;;5114262;28;20553;-11
2022/11/08 05:51:04;;;;;;;1.27;1.00;;;19.10;51.70;;;;;;5114793;28;20925;-10
2022/11/08 05:53:30;;;;;;;1.92;1.30;;;19.00;51.60;;;;;;5114290;28;20466;-11
2022/11/08 05:56:01;;;;;;;1.05;0.95;;;19.00;51.60;;;;;;5114124;28;20083;-10
2022/11/08 05:58:28;;;;;;;1.35;1.00;;;19.00;51.70;;;;;;5114048;28;20062;-10
2022/11/08 06:01:04;;;;;;;1.50;1.13;;;19.00;51.70;;;;;;5114619;28;20502;-10
2022/11/08 06:03:29;;;;;;;1.67;1.17;;;19.00;51.70;;;;;;5114290;28;20051;-10
2022/11/08 06:05:59;;;;;;;1.20;1.10;;;19.00;51.70;;;;;;5114270;28;20043;-10
2022/11/08 06:08:25;;;;;;;1.75;1.40;;;19.00;51.80;;;;;;5113800;28;20039;-10
2022/11/08 06:10:50;;;;;;;1.48;1.10;;;19.00;51.80;;;;;;5113924;28;20506;-10
2022/11/08 06:13:16;;;;;;;0.90;0.90;;;19.00;51.80;;;;;;5113762;28;20398;-11
2022/11/08 06:15:41;;;;;;;1.90;1.08;;;19.00;51.90;;;;;;5113673;28;20086;-10
2022/11/08 06:18:07;;;;;;;1.85;0.90;;;19.00;51.90;;;;;;5113754;28;20043;-11
2022/11/08 06:20:33;;;;;;;1.55;1.15;;;19.00;51.80;;;;;;5113543;28;20055;-10
2022/11/08 06:22:58;;;;;;;1.10;1.00;;;19.00;51.80;;;;;;5113661;28;20407;-10
2022/11/08 06:25:24;;;;;;;0.95;0.95;;;19.00;51.80;;;;;;5113999;28;20407;-11
2022/11/08 06:27:50;;;;;;;1.17;1.08;;;19.00;51.80;;;;;;5113422;28;20044;-11
2022/11/08 06:30:15;;;;;;;0.73;0.73;;;19.00;51.90;;;;;;5113922;28;20059;-10
2022/11/08 06:32:41;;;;;;;1.50;1.10;;;19.00;51.80;;;;;;5113397;28;20051;-10
2022/11/08 06:35:07;;;;;;;1.73;1.40;;;19.00;51.80;;;;;;5113457;28;20073;-10
2022/11/08 06:37:32;;;;;;;1.20;1.00;;;19.00;51.80;;;;;;5113461;28;20502;-11
2022/11/08 06:39:58;;;;;;;1.30;1.20;;;19.00;51.80;;;;;;5112995;28;20058;-10
2022/11/08 06:42:24;;;;;;;1.08;0.95;;;19.00;51.80;;;;;;5113342;28;20113;-10
2022/11/08 06:44:50;;;;;;;2.33;1.10;;;19.10;51.80;;;;;;5113459;28;20142;-10
2022/11/08 06:47:15;;;;;;;1.73;1.10;;;19.00;52.00;;;;;;5113449;28;20138;-11
2022/11/08 06:49:41;;;;;;;0.88;0.85;;;19.10;51.90;;;;;;5113803;28;20051;-10
2022/11/08 06:52:07;;;;;;;0.90;0.90;;;19.00;51.80;;;;;;5113329;28;20047;-10
2022/11/08 06:54:32;;;;;;;1.88;0.90;;;19.10;51.80;;;;;;5113200;28;20522;-10
2022/11/08 06:57:01;;;;;;;1.25;0.95;;;19.10;51.80;;;;;;5113257;28;20039;-11
2022/11/08 06:59:27;;;;;;;1.10;1.00;;;19.10;51.80;;;;;;5112935;28;20043;-11
2022/11/08 07:01:53;;;;;;;1.10;1.00;;;19.00;51.80;;;;;;5113136;28;20147;-10
2022/11/08 07:04:19;;;;;;;1.98;1.23;;;19.10;51.80;;;;;;5113045;28;20105;-10
2022/11/08 07:06:45;;;;;;;1.40;1.30;;;19.10;51.80;;;;;;5113208;28;20487;-10
2022/11/08 07:09:10;;;;;;;1.20;1.10;;;19.10;51.80;;;;;;5112748;28;20047;-10
2022/11/08 07:11:36;;;;;;;0.93;0.90;;;19.10;51.80;;;;;;5113165;28;20051;-10
2022/11/08 07:14:02;;;;;;;1.30;1.20;;;19.10;51.80;;;;;;5113063;28;20048;-11
2022/11/08 07:16:27;;;;;;;1.10;0.82;;;19.10;51.80;;;;;;5112494;28;20054;-11
2022/11/08 07:18:54;;;;;;;1.70;1.10;;;19.10;51.80;;;;;;5112655;28;20087;-10
2022/11/08 07:21:21;;;;;;;1.20;1.00;;;19.10;51.80;;;;;;5113187;28;20049;-10
2022/11/08 07:23:47;;;;;;;1.23;0.90;;;19.10;51.70;;;;;;5094429;28;20060;-10
2022/11/08 07:26:13;;;;;;;3.08;1.52;;;19.10;51.70;;;;;;5112928;28;20134;-11
2022/11/08 07:28:40;;;;;;;1.90;1.35;;;19.10;51.80;;;;;;5113003;28;20058;-10
2022/11/08 07:31:06;;;;;;;1.13;1.02;;;19.10;51.70;;;;;;5112201;28;20530;-11
2022/11/08 07:33:32;;;;;;;1.35;1.05;;;19.10;51.60;;;;;;5112062;28;20058;-11
2022/11/08 07:35:58;;;;;;;0.98;0.98;;;19.10;51.60;;;;;;5112246;28;20055;-10
2022/11/08 07:38:25;;;;;;;1.20;1.10;;;19.10;51.60;;;;;;5112371;28;20052;-10
2022/11/08 07:40:54;;;;;;;2.03;1.15;;;19.20;51.60;;;;;;5112532;28;20165;-10
2022/11/08 07:43:19;;;;;;;1.20;0.90;;;19.20;51.60;;;;;;5112511;28;20047;-10
2022/11/08 07:45:54;;;;;;;1.50;0.93;;;19.20;51.60;;;;;;5094210;28;20096;-10
2022/11/08 07:48:19;;;;;;;1.83;1.02;;;19.20;51.60;;;;;;5112703;28;20052;-10
2022/11/08 07:50:45;;;;;;;1.67;0.90;;;19.20;51.60;;;;;;5112787;28;20050;-10
2022/11/08 07:53:11;;;;;;;1.38;1.00;;;19.20;51.50;;;;;;5115226;28;20051;-10
2022/11/08 07:55:38;;;;;;;1.30;0.90;;;19.20;51.50;;;;;;5115893;28;20055;-11
2022/11/08 07:58:04;;;;;;;1.95;1.20;;;19.20;51.50;;;;;;5116199;28;20071;-10
2022/11/08 08:00:31;;;;;;;2.40;1.08;;;19.20;51.50;;;;;;5115861;28;20100;-11
2022/11/08 08:03:01;;;;;;;1.00;0.90;;;19.30;51.50;;;;;;5115683;28;20046;-10
2022/11/08 08:05:28;;;;;;;0.82;0.82;;;19.30;51.50;;;;;;5115853;28;20051;-10
2022/11/08 08:07:58;;;;;;;1.00;1.00;;;19.30;51.50;;;;;;5115801;28;20050;-10
2022/11/08 08:10:24;;;;;;;1.83;1.13;;;19.30;51.40;;;;;;5115334;28;20063;-10
2022/11/08 08:12:50;;;;;;;1.73;1.10;;;19.30;51.50;;;;;;5097602;28;20051;-10
2022/11/08 08:15:16;;;;;;;1.25;1.00;;;19.30;51.50;;;;;;5115816;28;20097;-10
2022/11/08 08:17:42;;;;;;;1.00;0.80;;;19.30;51.50;;;;;;5115367;28;20056;-10
2022/11/08 08:20:08;;;;;;;1.73;1.20;;;19.30;51.50;;;;;;5115950;28;20050;-10
2022/11/08 08:22:34;;;;;;;1.00;0.90;;;19.30;52.10;;;;;;5115274;28;20560;-10
2022/11/08 08:25:00;;;;;;;1.83;1.33;;;19.30;51.50;;;;;;5115846;28;20047;-10
2022/11/08 08:27:25;;;;;;;1.00;0.90;;;19.30;51.50;;;;;;5115162;28;20082;-10
2022/11/08 08:29:51;;;;;;;2.17;0.88;;;19.30;51.50;;;;;;5115018;28;20056;-10
2022/11/08 08:32:17;;;;;;;1.88;1.05;;;19.30;51.50;;;;;;5115265;28;20051;-11
2022/11/08 08:34:42;;;;;;;1.10;1.00;;;19.30;51.50;;;;;;5115181;28;20083;-11
2022/11/08 08:37:09;;;;;;;1.20;0.90;;;19.20;51.50;;;;;;5115169;28;20044;-10
2022/11/08 08:39:34;;;;;;;2.40;0.90;;;19.30;51.50;;;;;;5114758;28;20054;-10
2022/11/08 08:42:00;;;;;;;1.67;1.20;;;19.30;51.50;;;;;;5115287;28;20059;-11
2022/11/08 08:44:26;;;;;;;1.05;0.93;;;19.30;51.50;;;;;;5114477;28;20047;-10
2022/11/08 08:46:52;;;;;;;1.10;1.00;;;19.30;51.50;;;;;;5114742;28;20055;-10
2022/11/08 08:49:17;;;;;;;1.55;1.00;;;19.30;51.50;;;;;;5115094;28;20483;-10
2022/11/08 08:51:43;;;;;;;1.90;1.00;;;19.30;51.50;;;;;;5114927;28;20483;-10
2022/11/08 08:54:10;;;;;;;1.05;0.90;;;19.20;51.50;;;;;;5114928;28;20105;-11
2022/11/08 08:56:35;;;;;;;1.35;1.00;;;19.20;51.50;;;;;;5115383;28;20047;-11
2022/11/08 08:59:01;;;;;;;0.90;0.82;;;19.20;51.50;;;;;;5115029;28;20050;-10
2022/11/08 09:01:27;;;;;;;1.92;1.02;;;19.20;51.50;;;;;;5114653;28;20058;-10
2022/11/08 09:03:53;;;;;;;1.60;1.10;;;19.20;51.50;;;;;;5114108;28;20056;-10
2022/11/08 09:06:19;;;;;;;1.27;1.00;;;19.20;51.60;;;;;;5114817;28;20151;-10
2022/11/08 09:08:45;;;;;;;1.40;0.93;;;19.20;51.60;;;;;;5114897;28;20138;-11
2022/11/08 09:11:11;;;;;;;2.28;1.00;;;19.30;51.60;;;;;;5114393;28;20052;-11
2022/11/08 09:13:37;;;;;;;1.60;1.08;;;19.30;51.50;;;;;;5114031;28;20055;-10
2022/11/08 09:16:03;;;;;;;2.25;1.30;;;19.30;51.50;;;;;;5114211;28;20056;-10
2022/11/08 09:18:29;;;;;;;1.27;1.00;;;19.30;51.50;;;;;;5114160;28;20077;-10
2022/11/08 09:20:56;;;;;;;1.15;1.00;;;19.30;51.50;;;;;;5114297;28;20055;-10
2022/11/08 09:23:22;;;;;;;1.20;0.90;;;19.30;51.50;;;;;;5114396;28;20052;-11
2022/11/08 09:25:48;;;;;;;1.13;1.00;;;19.30;51.50;;;;;;5114401;28;20051;-11
2022/11/08 09:28:14;;;;;;;2.00;1.20;;;19.30;51.50;;;;;;5114083;28;20052;-10
2022/11/08 09:30:40;;;;;;;1.40;1.00;;;19.30;51.50;;;;;;5114416;28;20066;-10
2022/11/08 09:33:06;;;;;;;1.98;1.10;;;19.30;51.60;;;;;;5114102;28;20135;-11
2022/11/08 09:35:32;;;;;;;1.70;1.00;;;19.30;51.50;;;;;;5114181;28;20048;-11
2022/11/08 09:37:58;;;;;;;1.10;1.00;;;19.30;51.50;;;;;;5114545;28;20052;-11
2022/11/08 09:40:37;;;;;;;2.25;0.98;;;19.30;51.50;;;;;;5095885;28;20450;-10
2022/11/08 09:43:32;;;;;;;1.23;0.90;;;19.30;51.50;;;;;;5114039;28;20051;-10
2022/11/08 09:45:57;;;;;;;1.25;0.88;;;19.30;51.50;;;;;;5110208;28;20069;-11
2022/11/08 09:48:40;;;;;;;1.55;0.90;;;19.30;51.50;;;;;;5095026;28;20463;-10
2022/11/08 09:51:11;;;;;;;1.35;0.88;;;19.30;51.50;;;;;;5114066;28;20496;-11
2022/11/08 09:53:43;;;;;;;;;;;19.30;51.50;;;;;;5114148;28;20055;-11
2022/11/08 09:56:30;;;;;;;1.42;1.10;;;19.30;52.00;;;;;;5113772;28;19916;-10
2022/11/08 09:59:20;;;;;;;1.08;0.90;;;19.30;51.40;;;;;;5094896;28;20057;-10
2022/11/08 10:01:48;;;;;;;1.10;1.02;;;19.30;51.50;;;;;;5113655;28;20097;-10
2022/11/08 10:04:16;;;;;;;1.85;1.20;;;19.30;51.50;;;;;;5113520;28;20421;-11
2022/11/08 10:07:10;;;;;;;1.52;1.00;;;19.30;51.50;;;;;;5113410;28;20079;-10
2022/11/08 10:09:58;;;;;;;1.33;1.05;;;19.30;51.50;;;;;;5113313;28;20047;-10
2022/11/08 10:12:47;;;;;;;1.10;1.00;;;19.30;51.40;;;;;;5113255;28;20044;-10
2022/11/08 10:15:37;;;;;;;1.63;1.17;;;19.30;51.40;;;;;;5009447;28;20053;-11
2022/11/08 10:18:19;;;;;;;1.10;1.00;;;19.30;51.50;;;;;;5009219;28;20050;-10
2022/11/08 10:21:14;;;;;;;1.88;1.10;;;19.30;51.40;;;;;;5094108;28;20043;-11
2022/11/08 10:24:03;;;;;;;1.30;1.08;;;19.30;51.50;;;;;;5113236;28;20399;-10
2022/11/08 10:26:35;;;;;;;2.15;1.10;;;19.30;51.50;;;;;;5113366;28;20095;-10
2022/11/08 10:29:07;;;;;;;1.65;1.02;;;19.30;51.40;;;;;;5113458;28;20086;-11
2022/11/08 10:31:35;;;;;;;2.60;1.20;;;19.30;51.40;;;;;;5113550;28;20104;-11
2022/11/08 10:34:09;;;;;;;1.10;0.95;;;19.30;51.40;;;;;;5112373;28;20058;-11
2022/11/08 10:36:42;;;;;;;2.33;0.90;;;19.30;51.40;;;;;;5108867;28;20074;-13
2022/11/08 10:39:08;;;;;;;1.50;1.05;;;19.30;51.40;;;;;;5111412;28;20460;-12
2022/11/08 10:41:54;;;;;;;1.75;1.08;;;19.30;51.40;;;;;;5111613;28;20143;-11
2022/11/08 10:44:23;;;;;;;1.10;1.00;;;19.30;51.40;;;;;;5113342;28;20440;-12
2022/11/08 10:46:58;;;;;;;1.25;0.90;;;19.30;51.40;;;;;;5110955;28;20153;-11
2022/11/08 10:49:41;;;;;;;1.50;1.08;;;19.40;51.40;;;;;;5113525;28;20067;-11
2022/11/08 10:52:10;;;;;;;0.95;0.90;;;19.30;51.40;;;;;;5112981;28;20082;-11
2022/11/08 10:54:51;;;;;;;1.30;1.00;;;19.30;51.40;;;;;;5113473;28;20054;-11
2022/11/08 10:57:35;;;;;;;1.58;1.17;;;19.30;51.40;;;;;;5113298;28;20044;-11
2022/11/08 11:00:19;;;;;;;2.05;0.90;;;19.40;51.40;;;;;;5094315;28;20132;-11
2022/11/08 11:02:51;;;;;;;1.02;0.93;;;19.40;51.40;;;;;;5113083;28;20047;-11
2022/11/08 11:05:17;;;;;;;2.33;1.00;;;19.40;51.40;;;;;;5112626;28;20051;-11
2022/11/08 11:07:45;;;;;;;1.42;1.20;;;19.30;51.40;;;;;;5112616;28;20395;-11
2022/11/08 11:10:49;;;;;;;1.80;1.17;;;19.40;51.40;;;;;;5112666;28;20067;-11
2022/11/08 11:13:26;;;;;;;1.05;0.95;;;19.40;51.40;;;;;;5111184;28;20055;-12
2022/11/08 11:15:55;;;;;;;2.88;1.35;;;19.40;51.40;;;;;;5112347;28;20047;-11
2022/11/08 11:18:30;;;;;;;2.38;1.00;;;19.40;51.40;;;;;;5112617;28;20044;-11
2022/11/08 11:21:17;;;;;;;1.48;1.05;;;19.40;51.40;;;;;;5111270;28;20056;-13
2022/11/08 11:23:46;;;;;;;1.45;1.00;;;19.40;51.90;;;;;;5110351;28;20048;-13
2022/11/08 11:26:16;;;;;;;1.63;1.30;;;19.30;51.40;;;;;;5112333;28;20408;-12
2022/11/08 11:29:04;;;;;;;1.20;1.10;;;19.40;51.40;;;;;;5115136;28;20117;-13
2022/11/08 11:31:35;;;;;;;1.00;0.95;;;19.40;51.40;;;;;;5115658;28;20451;-11
2022/11/08 11:34:16;;;;;;;;;;;19.40;51.40;;;;;;5115963;28;20052;-12
2022/11/08 11:37:09;;;;;;;1.50;1.00;;;19.30;51.30;;;;;;5115972;28;19920;-11
2022/11/08 11:39:58;;;;;;;2.13;1.00;;;19.30;51.30;;;;;;5115861;28;20043;-12
2022/11/08 11:42:53;;;;;;;1.42;1.00;;;19.40;51.40;;;;;;5116109;28;20048;-11
2022/11/08 11:45:35;;;;;;;2.25;1.35;;;19.40;51.40;;;;;;5063983;28;20044;-11
2022/11/08 11:48:23;;;;;;;1.67;1.10;;;19.40;51.40;;;;;;5116157;28;20086;-11
2022/11/08 11:50:49;;;;;;;1.08;0.98;;;19.40;51.40;;;;;;5064052;28;20491;-11
2022/11/08 11:53:35;;;;;;;0.85;0.85;;;19.40;51.40;;;;;;5115867;28;20122;-11
2022/11/08 11:56:06;;;;;;;1.20;0.88;;;19.30;51.40;;;;;;5115805;28;20043;-11
2022/11/08 11:58:45;;;;;;;1.73;1.27;;;19.30;51.40;;;;;;5112368;28;20483;-10
2022/11/08 12:01:26;;;;;;;1.70;1.30;;;19.30;51.40;;;;;;5116231;28;20486;-10
2022/11/08 12:04:24;;;;;;;2.08;1.10;;;19.30;51.40;;;;;;5115695;28;20055;-10
2022/11/08 12:06:57;;;;;;;0.98;0.88;;;19.30;51.40;;;;;;5115584;28;20051;-10
2022/11/08 12:09:36;;;;;;;1.58;1.10;;;19.30;51.40;;;;;;5115214;28;20082;-10
2022/11/08 12:12:27;;;;;;;1.77;0.90;;;19.30;51.40;;;;;;5115546;28;20403;-10
2022/11/08 12:15:10;;;;;;;1.48;1.15;;;19.30;51.40;;;;;;5116074;28;20481;-11
2022/11/08 12:18:05;;;;;;;0.93;0.90;;;19.40;51.40;;;;;;5097303;28;20130;-10
2022/11/08 12:20:38;;;;;;;1.52;1.20;;;19.30;51.40;;;;;;5115805;28;20051;-10
2022/11/08 12:23:29;;;;;;;1.70;1.13;;;19.30;51.40;;;;;;5115803;28;20051;-10
2022/11/08 12:26:18;;;;;;;0.80;0.77;;;19.40;51.40;;;;;;5115121;28;20105;-11
2022/11/08 12:29:12;;;;;;;1.10;1.00;;;19.40;51.40;;;;;;5115461;28;20048;-10
2022/11/08 12:32:08;;;;;;;0.70;0.70;;;19.40;51.40;;;;;;5115213;28;20407;-11
2022/11/08 12:34:42;;;;;;;1.52;1.20;;;19.30;51.40;;;;;;5115319;28;20189;-10
2022/11/08 12:37:19;;;;;;;1.90;1.10;;;19.30;51.40;;;;;;5114282;28;20050;-10
2022/11/08 12:39:55;;;;;;;0.93;0.88;;;19.30;51.40;;;;;;5115448;28;20055;-10
2022/11/08 12:42:51;;;;;;;1.88;1.23;;;19.30;51.40;;;;;;5115799;28;20124;-10
2022/11/08 12:45:33;;;;;;;2.72;1.38;;;19.30;51.40;;;;;;5114866;28;20063;-10
2022/11/08 12:48:24;;;;;;;1.73;1.00;;;19.30;51.40;;;;;;5114851;28;20096;-10
2022/11/08 12:51:07;;;;;;;2.15;0.98;;;19.30;51.40;;;;;;5114948;28;20092;-11
2022/11/08 12:53:47;;;;;;;1.27;1.15;;;19.30;51.50;;;;;;5114907;28;20056;-10
2022/11/08 12:56:24;;;;;;;1.25;0.85;;;19.30;51.50;;;;;;5115027;28;20059;-10
2022/11/08 12:58:53;;;;;;;2.35;1.20;;;19.30;51.50;;;;;;5114795;28;20044;-11
2022/11/08 13:01:20;;;;;;;1.30;0.90;;;19.30;51.50;;;;;;5114394;28;20116;-11
2022/11/08 13:03:49;;;;;;;1.00;0.90;;;19.30;51.50;;;;;;5114491;28;20138;-10
2022/11/08 13:06:28;;;;;;;1.52;1.15;;;19.30;51.40;;;;;;5114734;28;20134;-11
2022/11/08 13:09:20;;;;;;;1.27;0.98;;;19.30;51.50;;;;;;5114486;28;20044;-10
2022/11/08 13:12:18;;;;;;;1.00;0.90;;;19.30;51.50;;;;;;5114679;28;20058;-11
2022/11/08 13:14:44;;;;;;;1.45;1.30;;;19.30;51.40;;;;;;5094300;28;20101;-10
2022/11/08 13:17:18;;;;;;;3.75;1.10;;;19.30;51.50;;;;;;5096537;28;20392;-11
2022/11/08 13:19:50;;;;;;;1.80;1.10;;;19.30;51.50;;;;;;5114867;28;20039;-10
2022/11/08 13:22:27;;;;;;;0.82;0.82;;;19.30;51.50;;;;;;5114425;28;20047;-10
2022/11/08 13:24:55;;;;;;;1.38;1.00;;;19.30;51.50;;;;;;5114415;28;20063;-10